createdAt,value
2023-07-24T00:00:50.541Z,97848.80
2023-07-24T00:03:31.760Z,97853.27
2023-07-24T00:06:00.650Z,97853.77
2023-07-24T00:08:28.683Z,97851.23
2023-07-24T00:10:56.662Z,97849.61
2023-07-24T00:13:24.749Z,97846.04
2023-07-24T00:15:52.565Z,97847.77
2023-07-24T00:18:20.568Z,97845.13
2023-07-24T00:20:48.578Z,97846.03
2023-07-24T00:23:16.477Z,97845.77
2023-07-24T00:25:44.302Z,97844.90
2023-07-24T00:28:12.131Z,97847.90
2023-07-24T00:30:40.249Z,97851.11
2023-07-24T00:33:08.102Z,97853.05
2023-07-24T00:35:36.043Z,97851.04
2023-07-24T00:38:04.218Z,97847.54
2023-07-24T00:40:32.127Z,97841.95
2023-07-24T00:43:00.366Z,97841.00
2023-07-24T00:45:30.073Z,97837.73
2023-07-24T00:47:58.222Z,97835.55
2023-07-24T00:50:26.416Z,97831.42
2023-07-24T00:52:55.108Z,97826.17
2023-07-24T00:55:23.052Z,97827.79
2023-07-24T00:57:51.081Z,97827.66
2023-07-24T01:00:19.215Z,97828.86
2023-07-24T01:02:49.252Z,97826.02
2023-07-24T01:05:17.809Z,97824.65
2023-07-24T01:07:45.855Z,97823.71
2023-07-24T01:10:13.709Z,97818.08
2023-07-24T01:12:41.446Z,97818.23
2023-07-24T01:15:26.393Z,97822.20
2023-07-24T01:18:01.816Z,97825.86
2023-07-24T01:20:30.824Z,97827.98
2023-07-24T01:23:16.145Z,97827.69
2023-07-24T01:26:00.556Z,97828.04
2023-07-24T01:28:28.633Z,97828.45
2023-07-24T01:30:57.531Z,97827.76
2023-07-24T01:33:26.215Z,97833.28
2023-07-24T01:35:58.788Z,97834.64
2023-07-24T01:38:27.177Z,97834.95
2023-07-24T01:40:55.741Z,97835.73
2023-07-24T01:43:24.333Z,97834.02
2023-07-24T01:45:52.347Z,97834.20
2023-07-24T01:48:20.190Z,97832.23
2023-07-24T01:50:49.163Z,97827.28
2023-07-24T01:53:17.250Z,97826.73
2023-07-24T01:55:45.207Z,97831.02
2023-07-24T01:58:13.272Z,97837.67
2023-07-24T02:00:41.247Z,97839.16
2023-07-24T02:03:09.079Z,97840.67
2023-07-24T02:05:37.202Z,97848.70
2023-07-24T02:08:05.669Z,97851.63
2023-07-24T02:10:33.807Z,97848.42
2023-07-24T02:13:01.802Z,97846.91
2023-07-24T02:15:29.714Z,97838.55
2023-07-24T02:17:57.673Z,97836.41
2023-07-24T02:20:25.661Z,97832.11
2023-07-24T02:22:53.685Z,97831.45
2023-07-24T02:25:21.544Z,97831.33
2023-07-24T02:27:49.425Z,97835.73
2023-07-24T02:30:17.387Z,97842.58
2023-07-24T02:32:45.204Z,97844.00
2023-07-24T02:35:13.112Z,97844.89
2023-07-24T02:37:40.975Z,97840.67
2023-07-24T02:40:13.280Z,97843.96
2023-07-24T02:42:41.228Z,97842.84
2023-07-24T02:45:12.296Z,97844.09
2023-07-24T02:47:40.332Z,97842.08
2023-07-24T02:50:08.642Z,97844.21
2023-07-24T02:52:36.533Z,97845.05
2023-07-24T02:55:04.961Z,97846.16
2023-07-24T02:57:33.244Z,97847.33
2023-07-24T03:00:01.203Z,97848.52
2023-07-24T03:02:29.404Z,97851.55
2023-07-24T03:04:57.408Z,97851.41
2023-07-24T03:07:25.237Z,97849.44
2023-07-24T03:09:53.048Z,97851.77
2023-07-24T03:12:20.828Z,97853.38
2023-07-24T03:14:49.132Z,97857.24
2023-07-24T03:17:16.991Z,97856.48
2023-07-24T03:19:44.867Z,97858.77
2023-07-24T03:22:12.755Z,97851.93
2023-07-24T03:24:40.809Z,97848.89
2023-07-24T03:27:08.876Z,97841.34
2023-07-24T03:29:38.463Z,97841.55
2023-07-24T03:32:06.766Z,97842.63
2023-07-24T03:34:34.826Z,97838.12
2023-07-24T03:37:03.305Z,97838.98
2023-07-24T03:39:32.614Z,97841.80
2023-07-24T03:42:00.474Z,97843.95
2023-07-24T03:44:28.457Z,97845.73
2023-07-24T03:46:56.494Z,97848.02
2023-07-24T03:49:24.605Z,97847.10
2023-07-24T03:51:52.562Z,97844.04
2023-07-24T03:54:20.424Z,97843.71
2023-07-24T03:56:48.292Z,97841.67
2023-07-24T03:59:16.372Z,97839.38
2023-07-24T04:01:44.439Z,97841.02
2023-07-24T04:04:12.269Z,97840.98
2023-07-24T04:06:40.245Z,97843.04
2023-07-24T04:09:08.103Z,97840.97
2023-07-24T04:11:39.437Z,97844.11
2023-07-24T04:14:07.585Z,97843.59
2023-07-24T04:16:35.991Z,97844.88
2023-07-24T04:19:04.422Z,97842.94
2023-07-24T04:21:32.510Z,97841.94
2023-07-24T04:24:00.581Z,97838.17
2023-07-24T04:26:28.808Z,97834.41
2023-07-24T04:28:57.039Z,97836.16
2023-07-24T04:31:25.122Z,97836.98
2023-07-24T04:33:53.135Z,97838.13
2023-07-24T04:36:20.921Z,97836.73
2023-07-24T04:38:48.766Z,97836.42
2023-07-24T04:41:17.165Z,97838.36
2023-07-24T04:43:45.154Z,97834.98
2023-07-24T04:46:13.002Z,97832.98
2023-07-24T04:48:41.184Z,97829.39
2023-07-24T04:51:09.066Z,97830.83
2023-07-24T04:53:37.007Z,97833.35
2023-07-24T04:56:05.031Z,97833.23
2023-07-24T04:58:33.063Z,97837.39
2023-07-24T05:01:03.821Z,97844.17
2023-07-24T05:03:32.319Z,97844.83
2023-07-24T05:06:00.234Z,97844.98
2023-07-24T05:08:28.033Z,97839.73
2023-07-24T05:10:59.936Z,97839.38
2023-07-24T05:13:28.151Z,97840.77
2023-07-24T05:15:55.922Z,97841.14
2023-07-24T05:18:23.764Z,97841.24
2023-07-24T05:20:52.726Z,97838.41
2023-07-24T05:23:20.715Z,97838.02
2023-07-24T05:25:48.698Z,97839.56
2023-07-24T05:28:16.547Z,97839.64
2023-07-24T05:30:44.492Z,97839.52
2023-07-24T05:33:12.718Z,97837.66
2023-07-24T05:35:40.704Z,97836.15
2023-07-24T05:38:08.750Z,97828.40
2023-07-24T05:40:36.830Z,97828.54
2023-07-24T05:43:05.185Z,97829.38
2023-07-24T05:45:33.069Z,97826.67
2023-07-24T05:48:01.087Z,97825.58
2023-07-24T05:50:29.012Z,97820.83
2023-07-24T05:52:56.910Z,97813.44
2023-07-24T05:55:24.998Z,97811.08
2023-07-24T05:57:53.136Z,97810.21
2023-07-24T06:00:20.964Z,97812.02
2023-07-24T06:02:49.053Z,97811.57
2023-07-24T06:05:17.656Z,97814.00
2023-07-24T06:07:45.636Z,97807.35
2023-07-24T06:10:13.842Z,97805.19
2023-07-24T06:12:41.763Z,97802.33
2023-07-24T06:15:10.213Z,97795.02
2023-07-24T06:17:38.167Z,97797.60
2023-07-24T06:20:07.427Z,97793.35
2023-07-24T06:22:35.236Z,97794.45
2023-07-24T06:25:03.045Z,97793.55
2023-07-24T06:27:31.074Z,97794.25
2023-07-24T06:30:13.068Z,97795.09
2023-07-24T06:32:43.684Z,97796.61
2023-07-24T06:35:11.924Z,97795.05
2023-07-24T06:37:39.891Z,97789.59
2023-07-24T06:40:08.403Z,97788.08
2023-07-24T06:42:37.465Z,97785.75
2023-07-24T06:45:08.418Z,97781.25
2023-07-24T06:47:37.038Z,97783.03
2023-07-24T06:50:06.010Z,97780.29
2023-07-24T06:52:34.310Z,97777.52
2023-07-24T06:55:02.362Z,97772.06
2023-07-24T06:57:30.261Z,97769.08
2023-07-24T06:59:58.286Z,97766.98
2023-07-24T07:02:26.590Z,97757.06
2023-07-24T07:04:54.665Z,97754.21
2023-07-24T07:07:22.602Z,97754.56
2023-07-24T07:09:50.664Z,97757.39
2023-07-24T07:12:19.946Z,97758.08
2023-07-24T07:14:49.990Z,97758.02
2023-07-24T07:17:18.076Z,97758.91
2023-07-24T07:19:45.952Z,97758.77
2023-07-24T07:22:13.908Z,97759.64
2023-07-24T07:24:42.013Z,97763.39
2023-07-24T07:27:10.094Z,97763.38
2023-07-24T07:29:38.218Z,97759.17
2023-07-24T07:32:06.432Z,97756.94
2023-07-24T07:34:35.961Z,97755.13
2023-07-24T07:37:03.899Z,97756.24
2023-07-24T07:39:31.702Z,97751.23
2023-07-24T07:42:12.281Z,97749.04
2023-07-24T07:44:44.083Z,97748.16
2023-07-24T07:47:12.275Z,97746.58
2023-07-24T07:49:44.214Z,97741.63
2023-07-24T07:52:12.353Z,97738.77
2023-07-24T07:54:40.288Z,97739.57
2023-07-24T07:57:08.122Z,97737.86
2023-07-24T07:59:36.463Z,97738.28
2023-07-24T08:02:04.618Z,97737.91
2023-07-24T08:04:32.924Z,97736.81
2023-07-24T08:07:01.015Z,97737.23
2023-07-24T08:09:29.472Z,97733.25
2023-07-24T08:11:57.447Z,97735.28
2023-07-24T08:14:25.521Z,97732.37
2023-07-24T08:16:54.708Z,97733.11
2023-07-24T08:19:22.904Z,97735.00
2023-07-24T08:21:50.733Z,97733.13
2023-07-24T08:24:18.627Z,97731.95
2023-07-24T08:26:46.690Z,97727.44
2023-07-24T08:29:14.761Z,97719.69
2023-07-24T08:31:42.757Z,97719.33
2023-07-24T08:34:11.010Z,97717.17
2023-07-24T08:36:38.976Z,97713.64
2023-07-24T08:39:07.256Z,97713.27
2023-07-24T08:41:36.447Z,97717.17
2023-07-24T08:44:09.026Z,97716.31
2023-07-24T08:46:38.598Z,97710.73
2023-07-24T08:49:07.272Z,97709.84
2023-07-24T08:51:36.541Z,97710.72
2023-07-24T08:54:05.629Z,97710.02
2023-07-24T08:56:33.594Z,97710.09
2023-07-24T08:59:01.664Z,97716.55
2023-07-24T09:01:29.489Z,97709.61
2023-07-24T09:03:57.563Z,97707.68
2023-07-24T09:06:27.587Z,97705.63
2023-07-24T09:08:56.110Z,97707.82
2023-07-24T09:11:24.180Z,97705.92
2023-07-24T09:13:55.399Z,97698.98
2023-07-24T09:16:25.309Z,97694.40
2023-07-24T09:21:29.767Z,97688.41
2023-07-24T09:23:58.745Z,97686.39
2023-07-24T09:26:27.007Z,97685.50
2023-07-24T09:28:55.625Z,97683.47
2023-07-24T09:31:34.760Z,97682.48
2023-07-24T09:34:03.570Z,97676.98
2023-07-24T09:36:40.928Z,97674.36
2023-07-24T09:39:11.971Z,97667.87
2023-07-24T09:41:41.522Z,97660.63
2023-07-24T09:44:13.072Z,97657.70
2023-07-24T09:49:13.523Z,97653.52
2023-07-24T09:51:45.846Z,97648.23
2023-07-24T09:54:21.482Z,97642.67
2023-07-24T09:56:55.577Z,97640.77
2023-07-24T09:59:31.873Z,97635.05
2023-07-24T10:02:00.225Z,97630.63
2023-07-24T10:04:28.897Z,97626.84
2023-07-24T10:06:57.256Z,97628.34
2023-07-24T10:09:28.298Z,97631.14
2023-07-24T10:11:58.944Z,97629.48
2023-07-24T10:14:26.975Z,97634.90
2023-07-24T10:16:57.413Z,97630.54
2023-07-24T10:19:25.464Z,97630.86
2023-07-24T10:21:53.440Z,97623.98
2023-07-24T10:24:40.155Z,97623.98
2023-07-24T10:27:09.897Z,97624.46
2023-07-24T10:29:38.300Z,97621.18
2023-07-24T10:32:18.651Z,97620.45
2023-07-24T10:34:47.077Z,97620.64
2023-07-24T10:37:15.141Z,97618.77
2023-07-24T10:39:43.112Z,97610.73
2023-07-24T10:42:12.021Z,97610.80
2023-07-24T10:44:40.240Z,97607.29
2023-07-24T10:47:08.258Z,97603.21
2023-07-24T10:49:36.735Z,97600.67
2023-07-24T10:52:05.027Z,97600.80
2023-07-24T10:54:33.085Z,97595.73
2023-07-24T10:57:04.241Z,97589.75
2023-07-24T10:59:38.873Z,97583.63
2023-07-24T11:02:08.101Z,97578.52
2023-07-24T11:04:36.370Z,97580.42
2023-07-24T11:07:04.573Z,97574.23
2023-07-24T11:09:41.392Z,97572.83
2023-07-24T11:12:12.757Z,97574.36
2023-07-24T11:14:47.351Z,97570.46
2023-07-24T11:17:15.525Z,97567.83
2023-07-24T11:19:43.534Z,97567.35
2023-07-24T11:22:11.569Z,97568.00
2023-07-24T11:24:47.131Z,97563.13
2023-07-24T11:27:16.307Z,97557.58
2023-07-24T11:29:51.169Z,97551.05
2023-07-24T11:32:22.391Z,97546.70
2023-07-24T11:34:51.405Z,97543.21
2023-07-24T11:37:20.085Z,97542.73
2023-07-24T11:39:58.043Z,97539.04
2023-07-24T11:42:28.858Z,97544.57
2023-07-24T11:44:56.892Z,97539.71
2023-07-24T11:47:24.813Z,97530.13
2023-07-24T11:50:00.085Z,97525.89
2023-07-24T11:52:39.311Z,97524.36
2023-07-24T11:55:07.710Z,97524.17
2023-07-24T11:57:35.667Z,97518.52
2023-07-24T12:00:04.906Z,97516.54
2023-07-24T12:02:35.980Z,97513.48
2023-07-24T12:05:05.774Z,97514.98
2023-07-24T12:07:35.026Z,97513.15
2023-07-24T12:10:04.088Z,97516.20
2023-07-24T12:12:38.768Z,97507.70
2023-07-24T12:15:07.220Z,97505.21
2023-07-24T12:17:35.447Z,97501.95
2023-07-24T12:20:05.438Z,97497.27
2023-07-24T12:22:34.162Z,97490.41
2023-07-24T12:25:02.854Z,97486.62
2023-07-24T12:27:31.022Z,97486.05
2023-07-24T12:29:59.099Z,97481.92
2023-07-24T12:32:27.187Z,97480.08
2023-07-24T12:34:55.302Z,97475.81
2023-07-24T12:37:23.446Z,97470.86
2023-07-24T12:39:51.319Z,97462.07
2023-07-24T12:42:19.201Z,97460.71
2023-07-24T12:44:47.075Z,97458.63
2023-07-24T12:47:15.142Z,97453.96
2023-07-24T12:49:42.995Z,97451.13
2023-07-24T12:52:11.711Z,97450.45
2023-07-24T12:54:59.103Z,97453.67
2023-07-24T12:57:27.828Z,97453.34
2023-07-24T12:59:55.938Z,97449.24
2023-07-24T13:02:23.992Z,97446.13
2023-07-24T13:04:52.032Z,97447.61
2023-07-24T13:07:19.936Z,97448.21
2023-07-24T13:09:47.883Z,97446.06
2023-07-24T13:12:15.716Z,97447.52
2023-07-24T13:14:43.692Z,97440.73
2023-07-24T13:17:11.746Z,97437.00
2023-07-24T13:19:39.569Z,97440.16
2023-07-24T13:22:07.671Z,97441.33
2023-07-24T13:24:35.504Z,97443.84
2023-07-24T13:27:03.517Z,97435.23
2023-07-24T13:29:32.102Z,97438.88
2023-07-24T13:32:00.073Z,97435.95
2023-07-24T13:34:27.946Z,97435.09
2023-07-24T13:36:56.031Z,97432.13
2023-07-24T13:39:23.981Z,97428.41
2023-07-24T13:41:51.950Z,97426.01
2023-07-24T13:44:19.886Z,97431.55
2023-07-24T13:46:47.932Z,97431.86
2023-07-24T13:49:15.825Z,97431.96
2023-07-24T13:51:43.948Z,97427.55
2023-07-24T13:54:11.840Z,97426.50
2023-07-24T13:56:39.810Z,97424.95
2023-07-24T13:59:07.849Z,97413.31
2023-07-24T14:01:36.190Z,97406.41
2023-07-24T14:04:04.926Z,97404.59
2023-07-24T14:06:32.963Z,97399.89
2023-07-24T14:09:01.068Z,97399.36
2023-07-24T14:11:30.677Z,97399.50
2023-07-24T14:13:59.243Z,97393.58
2023-07-24T14:16:27.262Z,97392.11
2023-07-24T14:18:55.184Z,97386.46
2023-07-24T14:21:23.055Z,97383.91
2023-07-24T14:23:50.950Z,97378.84
2023-07-24T14:26:19.117Z,97374.29
2023-07-24T14:28:47.166Z,97369.42
2023-07-24T14:31:15.040Z,97360.34
2023-07-24T14:33:43.217Z,97361.20
2023-07-24T14:36:11.126Z,97360.29
2023-07-24T14:38:38.970Z,97356.39
2023-07-24T14:41:07.132Z,97353.78
2023-07-24T14:43:35.013Z,97350.60
2023-07-24T14:46:02.886Z,97350.19
2023-07-24T14:48:32.776Z,97350.39
2023-07-24T14:51:02.371Z,97352.55
2023-07-24T14:53:30.257Z,97347.19
2023-07-24T14:55:58.443Z,97348.25
2023-07-24T14:58:26.307Z,97349.02
2023-07-24T15:00:54.231Z,97350.05
2023-07-24T15:03:22.586Z,97348.75
2023-07-24T15:05:50.708Z,97343.95
2023-07-24T15:08:18.974Z,97339.34
2023-07-24T15:10:46.804Z,97335.88
2023-07-24T15:13:14.642Z,97328.55
2023-07-24T15:15:42.814Z,97322.16
2023-07-24T15:18:10.754Z,97321.20
2023-07-24T15:20:39.023Z,97320.33
2023-07-24T15:23:08.398Z,97319.13
2023-07-24T15:25:38.079Z,97315.91
2023-07-24T15:28:05.978Z,97320.09
2023-07-24T15:30:34.186Z,97324.59
2023-07-24T15:33:01.996Z,97318.47
2023-07-24T15:35:30.016Z,97318.13
2023-07-24T15:37:58.065Z,97312.89
2023-07-24T15:40:26.103Z,97311.65
2023-07-24T15:42:54.130Z,97301.30
2023-07-24T15:45:22.024Z,97303.49
2023-07-24T15:47:50.038Z,97303.30
2023-07-24T15:50:17.976Z,97305.23
2023-07-24T15:52:45.919Z,97306.47
2023-07-24T15:55:13.868Z,97303.29
2023-07-24T15:57:41.668Z,97301.09
2023-07-24T16:00:10.324Z,97299.20
2023-07-24T16:02:41.569Z,97292.30
2023-07-24T16:05:17.962Z,97299.23
2023-07-24T16:07:47.212Z,97301.67
2023-07-24T16:10:15.705Z,97299.57
2023-07-24T16:12:43.988Z,97295.92
2023-07-24T16:15:12.230Z,97292.00
2023-07-24T16:20:28.676Z,97285.71
2023-07-24T16:22:56.870Z,97285.44
2023-07-24T16:25:25.022Z,97280.11
2023-07-24T16:27:52.880Z,97283.31
2023-07-24T16:30:22.183Z,97281.35
2023-07-24T16:32:50.875Z,97279.98
2023-07-24T16:35:19.086Z,97272.86
2023-07-24T16:37:48.888Z,97270.90
2023-07-24T16:40:17.785Z,97266.97
2023-07-24T16:42:46.677Z,97264.41
2023-07-24T16:45:29.450Z,97263.33
2023-07-24T16:48:03.653Z,97265.98
2023-07-24T16:50:33.231Z,97265.85
2023-07-24T16:53:01.266Z,97266.44
2023-07-24T16:55:30.202Z,97260.34
2023-07-24T16:57:58.865Z,97256.00
2023-07-24T17:00:26.916Z,97255.17
2023-07-24T17:02:54.849Z,97253.66
2023-07-24T17:05:23.072Z,97252.86
2023-07-24T17:07:50.980Z,97254.08
2023-07-24T17:10:19.625Z,97253.48
2023-07-24T17:12:47.593Z,97256.13
2023-07-24T17:15:15.421Z,97252.96
2023-07-24T17:17:44.372Z,97250.67
2023-07-24T17:20:12.277Z,97252.73
2023-07-24T17:22:40.097Z,97250.92
2023-07-24T17:25:08.229Z,97247.81
2023-07-24T17:27:38.257Z,97244.33
2023-07-24T17:30:06.745Z,97239.04
2023-07-24T17:32:34.741Z,97233.98
2023-07-24T17:35:02.582Z,97231.54
2023-07-24T17:40:05.718Z,97232.30
2023-07-24T17:42:33.667Z,97229.56
2023-07-24T17:45:01.643Z,97231.10
2023-07-24T17:47:29.614Z,97228.30
2023-07-24T17:50:06.281Z,97226.62
2023-07-24T17:52:37.249Z,97226.02
2023-07-24T17:55:06.496Z,97227.47
2023-07-24T17:57:34.979Z,97226.71
2023-07-24T18:00:04.576Z,97223.86
2023-07-24T18:02:33.470Z,97228.10
2023-07-24T18:05:02.068Z,97228.08
2023-07-24T18:07:29.947Z,97227.74
2023-07-24T18:09:58.048Z,97232.57
2023-07-24T18:12:27.024Z,97233.33
2023-07-24T18:14:54.977Z,97230.86
2023-07-24T18:17:23.148Z,97235.67
2023-07-24T18:19:51.232Z,97235.94
2023-07-24T18:22:22.366Z,97236.52
2023-07-24T18:24:50.601Z,97229.39
2023-07-24T18:27:18.640Z,97222.49
2023-07-24T18:29:46.690Z,97223.19
2023-07-24T18:32:14.755Z,97223.48
2023-07-24T18:34:42.767Z,97225.16
2023-07-24T18:37:10.575Z,97223.89
2023-07-24T18:39:38.512Z,97225.29
2023-07-24T18:42:06.588Z,97227.37
2023-07-24T18:44:36.665Z,97230.17
2023-07-24T18:47:04.821Z,97230.66
2023-07-24T18:49:32.874Z,97228.62
2023-07-24T18:52:00.682Z,97233.45
2023-07-24T18:54:28.956Z,97241.45
2023-07-24T18:56:57.220Z,97237.73
2023-07-24T18:59:25.134Z,97234.73
2023-07-24T19:01:53.182Z,97231.21
2023-07-24T19:04:21.067Z,97227.18
2023-07-24T19:06:49.102Z,97231.54
2023-07-24T19:09:17.277Z,97229.75
2023-07-24T19:11:45.234Z,97225.84
2023-07-24T19:14:13.521Z,97225.54
2023-07-24T19:16:41.588Z,97222.80
2023-07-24T19:19:09.561Z,97221.35
2023-07-24T19:21:37.479Z,97219.43
2023-07-24T19:24:05.767Z,97216.84
2023-07-24T19:26:33.759Z,97217.39
2023-07-24T19:29:01.665Z,97214.09
2023-07-24T19:31:29.831Z,97202.31
2023-07-24T19:33:58.090Z,97198.63
2023-07-24T19:36:26.015Z,97204.87
2023-07-24T19:38:54.163Z,97208.44
2023-07-24T19:41:22.196Z,97209.95
2023-07-24T19:43:49.998Z,97207.89
2023-07-24T19:46:18.010Z,97210.52
2023-07-24T19:48:46.232Z,97208.31
2023-07-24T19:51:14.281Z,97208.39
2023-07-24T19:53:42.105Z,97207.39
2023-07-24T19:56:10.028Z,97214.71
2023-07-24T19:58:38.401Z,97216.63
2023-07-24T20:01:07.350Z,97214.09
2023-07-24T20:03:35.489Z,97218.54
2023-07-24T20:06:07.345Z,97222.98
2023-07-24T20:08:36.310Z,97220.54
2023-07-24T20:11:08.483Z,97220.14
2023-07-24T20:13:39.137Z,97224.28
2023-07-24T20:16:07.464Z,97226.76
2023-07-24T20:18:35.700Z,97231.73
2023-07-24T20:21:03.581Z,97237.08
2023-07-24T20:23:31.810Z,97231.05
2023-07-24T20:25:59.721Z,97233.98
2023-07-24T20:28:28.070Z,97235.90
2023-07-24T20:30:56.046Z,97236.97
2023-07-24T20:33:24.954Z,97239.27
2023-07-24T20:35:53.520Z,97236.52
2023-07-24T20:38:26.090Z,97235.41
2023-07-24T20:40:54.670Z,97235.04
2023-07-24T20:43:22.730Z,97235.70
2023-07-24T20:45:54.059Z,97229.27
2023-07-24T20:48:23.183Z,97223.05
2023-07-24T20:50:51.248Z,97215.17
2023-07-24T20:53:19.242Z,97214.34
2023-07-24T20:55:47.907Z,97219.91
2023-07-24T20:58:15.873Z,97222.48
2023-07-24T21:00:43.953Z,97219.23
2023-07-24T21:03:12.018Z,97212.43
2023-07-24T21:05:39.952Z,97208.25
2023-07-24T21:08:07.969Z,97204.30
2023-07-24T21:10:36.028Z,97201.50
2023-07-24T21:13:03.993Z,97201.77
2023-07-24T21:15:31.832Z,97200.70
2023-07-24T21:17:59.834Z,97193.63
2023-07-24T21:20:27.863Z,97186.84
2023-07-24T21:22:56.187Z,97181.98
2023-07-24T21:25:24.082Z,97178.05
2023-07-24T21:27:52.017Z,97179.39
2023-07-24T21:30:22.021Z,97182.75
2023-07-24T21:32:50.341Z,97187.23
2023-07-24T21:35:19.532Z,97188.42
2023-07-24T21:37:47.488Z,97185.87
2023-07-24T21:40:15.350Z,97180.72
2023-07-24T21:42:43.121Z,97175.81
2023-07-24T21:45:11.180Z,97164.52
2023-07-24T21:47:39.094Z,97160.03
2023-07-24T21:50:07.529Z,97147.98
2023-07-24T21:52:35.414Z,97138.31
2023-07-24T21:55:03.292Z,97137.08
2023-07-24T21:57:31.136Z,97129.90
2023-07-24T21:59:59.207Z,97131.61
2023-07-24T22:02:27.269Z,97131.95
2023-07-24T22:04:55.761Z,97130.06
2023-07-24T22:07:23.735Z,97128.40
2023-07-24T22:09:51.815Z,97128.27
2023-07-24T22:12:19.886Z,97126.84
2023-07-24T22:14:47.778Z,97127.98
2023-07-24T22:17:15.709Z,97131.67
2023-07-24T22:19:43.567Z,97134.76
2023-07-24T22:22:11.460Z,97136.52
2023-07-24T22:24:40.497Z,97142.92
2023-07-24T22:27:08.510Z,97144.05
2023-07-24T22:29:36.515Z,97148.89
2023-07-24T22:32:04.766Z,97152.69
2023-07-24T22:34:32.820Z,97151.19
2023-07-24T22:37:00.651Z,97148.13
2023-07-24T22:39:28.656Z,97151.00
2023-07-24T22:41:56.874Z,97157.80
2023-07-24T22:44:24.712Z,97155.33
2023-07-24T22:46:52.787Z,97151.81
2023-07-24T22:49:23.256Z,97148.48
2023-07-24T22:51:51.297Z,97139.92
2023-07-24T22:54:19.108Z,97131.65
2023-07-24T22:56:47.135Z,97132.28
2023-07-24T22:59:18.763Z,97136.02
2023-07-24T23:01:47.045Z,97131.24
2023-07-24T23:04:15.235Z,97125.53
2023-07-24T23:06:43.229Z,97131.13
2023-07-24T23:09:11.363Z,97134.77
2023-07-24T23:11:39.160Z,97138.33
2023-07-24T23:14:07.010Z,97138.75
2023-07-24T23:16:35.024Z,97136.77
2023-07-24T23:19:03.238Z,97136.77
2023-07-24T23:21:31.707Z,97139.59
2023-07-24T23:24:00.102Z,97136.58
2023-07-24T23:26:28.056Z,97135.21
2023-07-24T23:28:58.722Z,97133.13
2023-07-24T23:31:26.795Z,97134.09
2023-07-24T23:33:54.773Z,97130.75
2023-07-24T23:36:22.885Z,97127.44
2023-07-24T23:38:50.773Z,97125.42
2023-07-24T23:41:18.574Z,97134.02
2023-07-24T23:43:46.634Z,97134.77
2023-07-24T23:46:15.323Z,97130.58
2023-07-24T23:48:43.902Z,97128.60
2023-07-24T23:51:19.221Z,97132.44
2023-07-24T23:53:47.704Z,97132.75
2023-07-24T23:56:15.820Z,97135.52
2023-07-24T23:58:44.824Z,97138.68
